Time;durP1;ratioP1;P1;durP2;ratioP2;P2;SDS_P1;SDS_P2;PMS_P1;PMS_P2;Temp;Humidity;BMP_temperature;BMP_pressure;BME280_temperature;BME280_humidity;BME280_pressure;Samples;Min_cycle;Max_cycle;Signal;HPM_P1;HPM_P2
2023/11/16 00:00:12;;;;;;;10.95;3.53;;;;;;;10.47;100.00;101525.00;5342331;27;20577;-73
2023/11/16 00:02:45;;;;;;;9.45;2.85;;;;;;;10.48;100.00;101518.81;5338507;27;20038;-73
2023/11/16 00:05:17;;;;;;;11.50;2.85;;;;;;;10.56;100.00;101520.03;5339857;27;20035;-73
2023/11/16 00:07:49;;;;;;;11.40;2.92;;;;;;;10.46;100.00;101512.88;5340877;27;20405;-73
2023/11/16 00:10:22;;;;;;;12.20;3.17;;;;;;;10.54;100.00;101519.31;5339106;27;20031;-73
2023/11/16 00:12:55;;;;;;;9.23;2.58;;;;;;;10.55;100.00;101516.59;5340096;27;20035;-74
2023/11/16 00:15:28;;;;;;;9.98;3.00;;;;;;;10.54;100.00;101516.72;5341308;27;20034;-74
2023/11/16 00:18:03;;;;;;;13.48;3.25;;;;;;;10.57;100.00;101524.31;5336486;27;20039;-73
2023/11/16 00:20:37;;;;;;;10.35;2.80;;;;;;;10.55;100.00;101524.44;5335381;27;20023;-73
2023/11/16 00:23:09;;;;;;;10.50;3.53;;;;;;;10.56;100.00;101523.47;5332455;27;20027;-74
2023/11/16 00:25:41;;;;;;;8.00;2.72;;;;;;;10.54;100.00;101521.94;5334279;27;20058;-73
2023/11/16 00:28:14;;;;;;;10.02;2.75;;;;;;;10.56;100.00;101525.28;5338945;27;20028;-74
2023/11/16 00:30:47;;;;;;;8.88;2.60;;;;;;;10.56;100.00;101525.28;5319063;27;20125;-73
2023/11/16 00:33:18;;;;;;;9.27;3.15;;;;;;;10.54;100.00;101509.69;5340374;27;20050;-73
2023/11/16 00:35:51;;;;;;;7.53;2.47;;;;;;;10.47;100.00;101504.06;5336382;27;20022;-74
2023/11/16 00:38:25;;;;;;;11.82;4.13;;;;;;;10.46;100.00;101510.25;5340264;27;20034;-73
2023/11/16 00:40:58;;;;;;;9.60;3.08;;;;;;;10.42;100.00;101511.41;5336566;27;20035;-73
2023/11/16 00:43:30;;;;;;;6.13;2.60;;;;;;;10.46;100.00;101506.78;5338915;27;20144;-74
2023/11/16 00:46:04;;;;;;;8.80;2.50;;;;;;;10.40;100.00;101515.09;5339498;27;20112;-73
2023/11/16 00:48:36;;;;;;;7.13;2.97;;;;;;;10.36;100.00;101513.66;5336235;27;20467;-73
2023/11/16 00:51:08;;;;;;;11.63;3.03;;;;;;;10.36;100.00;101509.25;5330597;27;20029;-74
2023/11/16 00:53:43;;;;;;;10.35;3.10;;;;;;;10.39;100.00;101511.63;5340426;27;20039;-73
2023/11/16 00:56:14;;;;;;;8.80;2.67;;;;;;;10.31;100.00;101521.84;5339238;27;20026;-73
2023/11/16 00:58:47;;;;;;;10.18;3.30;;;;;;;10.28;100.00;101505.53;5338851;27;20391;-73
2023/11/16 01:01:19;;;;;;;9.70;3.30;;;;;;;10.27;100.00;101512.53;5338491;27;20044;-73
2023/11/16 01:03:53;;;;;;;7.97;2.83;;;;;;;10.23;100.00;101513.69;5340708;27;20027;-73
2023/11/16 01:06:25;;;;;;;10.35;2.72;;;;;;;10.19;100.00;101517.44;5339141;27;20034;-73
2023/11/16 01:08:57;;;;;;;9.30;3.30;;;;;;;10.18;100.00;101518.41;5337956;27;20035;-73
2023/11/16 01:11:29;;;;;;;9.15;2.92;;;;;;;10.20;100.00;101513.91;5337619;27;20027;-73
2023/11/16 01:14:01;;;;;;;6.45;2.90;;;;;;;10.10;100.00;101512.88;5338935;27;20042;-73
2023/11/16 01:16:42;;;;;;;7.65;2.67;;;;;;;10.10;100.00;101518.94;5334185;27;20023;-73
2023/11/16 01:19:16;;;;;;;8.65;2.85;;;;;;;10.13;100.00;101513.50;5329592;27;20023;-73
2023/11/16 01:21:54;;;;;;;9.30;2.58;;;;;;;10.08;100.00;101518.25;5338734;27;20035;-73
2023/11/16 01:24:28;;;;;;;8.13;2.40;;;;;;;10.06;100.00;101512.28;5338490;27;20042;-73
2023/11/16 01:27:13;;;;;;;8.63;2.70;;;;;;;10.06;100.00;101507.03;5337907;27;20034;-73
2023/11/16 01:29:45;;;;;;;6.32;2.60;;;;;;;10.07;100.00;101508.69;5340772;27;20030;-73
2023/11/16 01:32:17;;;;;;;11.07;2.65;;;;;;;10.10;100.00;101512.88;5338826;27;20031;-74
2023/11/16 01:34:51;;;;;;;9.07;2.80;;;;;;;10.06;100.00;101509.66;5335760;27;20030;-73
2023/11/16 01:37:22;;;;;;;7.40;2.38;;;;;;;10.05;100.00;101515.00;5336857;27;20104;-74
2023/11/16 01:39:54;;;;;;;9.65;3.05;;;;;;;10.03;100.00;101511.66;5338125;27;20030;-73
2023/11/16 01:42:26;;;;;;;9.23;3.50;;;;;;;10.01;100.00;101516.19;5336011;27;20038;-73
2023/11/16 01:44:58;;;;;;;9.23;3.30;;;;;;;10.00;100.00;101512.72;5338507;27;20026;-73
2023/11/16 01:47:31;;;;;;;10.07;2.80;;;;;;;10.01;100.00;101513.56;5327859;27;20046;-73
2023/11/16 01:50:03;;;;;;;7.85;2.40;;;;;;;9.93;100.00;101503.66;5337430;27;20049;-73
2023/11/16 01:52:35;;;;;;;8.32;3.13;;;;;;;9.97;100.00;101510.31;5337835;27;20030;-73
2023/11/16 01:55:07;;;;;;;9.27;3.20;;;;;;;9.94;100.00;101510.53;5338560;27;20075;-73
2023/11/16 01:57:40;;;;;;;6.20;2.65;;;;;;;9.91;100.00;101511.59;5337824;27;20030;-73
2023/11/16 02:00:15;;;;;;;10.02;2.72;;;;;;;9.90;100.00;101509.91;5335952;27;20023;-73
2023/11/16 02:02:49;;;;;;;9.55;3.33;;;;;;;9.82;100.00;101500.94;5336577;27;20023;-73
2023/11/16 02:05:22;;;;;;;8.57;3.28;;;;;;;9.81;100.00;101507.97;5336865;27;20030;-73
2023/11/16 02:07:54;;;;;;;8.18;3.13;;;;;;;9.83;100.00;101508.69;5321459;22;20061;-74
2023/11/16 02:10:30;;;;;;;14.05;3.25;;;;;;;9.82;100.00;101499.16;5255994;28;20504;-73
2023/11/16 02:13:04;;;;;;;10.52;2.90;;;;;;;9.76;100.00;101510.06;5255023;28;20474;-73
2023/11/16 02:15:37;;;;;;;10.65;3.60;;;;;;;9.77;100.00;101503.88;5254870;28;20052;-73
2023/11/16 02:18:13;;;;;;;10.07;3.10;;;;;;;9.83;100.00;101500.00;5252693;28;20029;-73
2023/11/16 02:20:46;;;;;;;8.10;2.38;;;;;;;9.74;100.00;101496.25;5254182;28;20025;-73
2023/11/16 02:23:18;;;;;;;9.57;3.03;;;;;;;9.74;100.00;101493.66;5237236;28;20044;-73
2023/11/16 02:25:57;;;;;;;7.90;2.63;;;;;;;9.81;100.00;101491.41;5255439;28;20021;-77
2023/11/16 02:28:30;;;;;;;7.00;2.67;;;;;;;9.74;100.00;101496.25;5254642;28;20602;-72
2023/11/16 02:31:02;;;;;;;;;;;;;;;10.44;100.00;101499.03;5254115;28;20040;-73
2023/11/16 02:33:34;;;;;;;6.30;2.55;;;;;;;9.79;100.00;101498.53;5256284;28;19917;-73
2023/11/16 02:36:07;;;;;;;8.25;2.95;;;;;;;9.68;100.00;101492.28;5255523;28;20041;-73
2023/11/16 02:38:38;;;;;;;10.75;3.03;;;;;;;9.59;100.00;101477.25;5255816;28;20043;-73
2023/11/16 02:41:11;;;;;;;7.63;3.17;;;;;;;9.63;100.00;101494.41;5254197;28;20400;-73
2023/11/16 02:43:44;;;;;;;6.77;2.87;;;;;;;9.62;100.00;101491.88;5255695;28;20519;-75
2023/11/16 02:46:17;;;;;;;11.73;3.22;;;;;;;9.68;100.00;101492.28;5254999;28;20029;-76
2023/11/16 02:48:49;;;;;;;6.78;3.15;;;;;;;9.69;100.00;101493.13;5255585;28;20029;-72
2023/11/16 02:51:21;;;;;;;6.60;2.92;;;;;;;9.61;100.00;101490.22;5253647;28;20036;-75
2023/11/16 02:53:54;;;;;;;8.98;2.65;;;;;;;9.46;100.00;101473.81;5255773;28;20390;-73
2023/11/16 02:56:26;;;;;;;10.80;3.25;;;;;;;9.61;100.00;101491.03;5255046;28;20490;-77
2023/11/16 02:58:58;;;;;;;6.82;2.88;;;;;;;9.61;100.00;101483.19;5255003;28;20043;-72
2023/11/16 03:01:32;;;;;;;9.90;3.27;;;;;;;9.67;100.00;101493.25;5253484;28;20528;-78
2023/11/16 03:04:04;;;;;;;8.48;3.20;;;;;;;9.65;100.00;101486.44;5255742;28;20425;-73
2023/11/16 03:06:37;;;;;;;10.77;3.05;;;;;;;9.69;100.00;101482.66;5255569;28;20033;-72
2023/11/16 03:09:16;;;;;;;11.65;3.30;;;;;;;9.75;100.00;101483.06;5234904;28;20045;-73
2023/11/16 03:11:47;;;;;;;7.38;2.80;;;;;;;9.75;100.00;101483.06;5254652;28;20044;-74
2023/11/16 03:14:19;;;;;;;12.30;4.25;;;;;;;9.76;100.00;101478.66;5255690;28;20389;-72
2023/11/16 03:16:51;;;;;;;8.73;3.10;;;;;;;9.72;100.00;101474.59;5256280;28;20023;-75
2023/11/16 03:19:23;;;;;;;11.25;3.83;;;;;;;9.64;100.00;101462.06;5253212;28;20040;-75
2023/11/16 03:21:55;;;;;;;7.95;2.85;;;;;;;9.68;100.00;101466.13;5255145;28;20513;-75
2023/11/16 03:24:27;;;;;;;6.95;2.80;;;;;;;9.70;100.00;101468.66;5233914;28;20527;-72
2023/11/16 03:26:59;;;;;;;7.95;3.55;;;;;;;9.71;100.00;101467.69;5251937;28;20408;-74
2023/11/16 03:29:34;;;;;;;8.95;3.45;;;;;;;9.69;100.00;101477.41;5254418;28;20040;-78
2023/11/16 03:32:07;;;;;;;10.43;3.10;;;;;;;9.68;100.00;101475.75;5252680;28;20047;-77
2023/11/16 03:34:39;;;;;;;8.43;2.85;;;;;;;9.72;100.00;101471.97;5250699;28;20063;-78
2023/11/16 03:37:11;;;;;;;9.15;3.60;;;;;;;9.72;100.00;101466.75;5254976;28;20402;-75
2023/11/16 03:39:43;;;;;;;10.25;3.15;;;;;;;9.70;100.00;101474.72;5254513;28;20048;-73
2023/11/16 03:42:16;;;;;;;9.27;3.33;;;;;;;9.73;100.00;101469.22;5253740;28;20068;-73
2023/11/16 03:44:50;;;;;;;10.10;3.83;;;;;;;9.78;100.00;101481.19;5254086;28;20033;-73
2023/11/16 03:47:21;;;;;;;8.80;2.90;;;;;;;9.71;100.00;101486.84;5253723;28;20032;-73
2023/11/16 03:49:53;;;;;;;7.65;3.15;;;;;;;9.64;100.00;101477.75;5254512;28;20032;-73
2023/11/16 03:52:25;;;;;;;9.98;3.50;;;;;;;9.71;100.00;101483.41;5254802;28;20462;-73
2023/11/16 03:54:58;;;;;;;7.70;3.30;;;;;;;9.74;100.00;101472.72;5252868;28;20508;-73
2023/11/16 03:57:30;;;;;;;11.10;3.72;;;;;;;9.83;100.00;101469.44;5253414;28;20025;-74
2023/11/16 04:00:02;;;;;;;10.18;3.38;;;;;;;9.79;100.00;101470.59;5253842;28;20397;-75
2023/11/16 04:02:35;;;;;;;6.55;2.80;;;;;;;9.85;100.00;101467.56;5235210;28;20041;-73
2023/11/16 04:05:09;;;;;;;9.38;3.40;;;;;;;9.85;100.00;101462.31;5253367;28;20148;-73
2023/11/16 04:07:41;;;;;;;10.95;3.53;;;;;;;9.88;100.00;101472.53;5252024;28;20048;-76
2023/11/16 04:10:13;;;;;;;8.43;3.33;;;;;;;9.84;100.00;101472.88;5253151;28;20059;-75
2023/11/16 04:12:45;;;;;;;7.95;3.65;;;;;;;9.84;100.00;101478.94;5254793;28;20056;-76
2023/11/16 04:15:17;;;;;;;10.38;3.28;;;;;;;9.83;100.00;101466.81;5253623;28;20039;-74
2023/11/16 04:17:49;;;;;;;10.35;3.25;;;;;;;9.81;100.00;101466.09;5250910;28;20029;-73
2023/11/16 04:20:23;;;;;;;14.38;4.45;;;;;;;9.76;100.00;101447.25;5254463;28;20496;-72
2023/11/16 04:22:55;;;;;;;8.27;3.20;;;;;;;9.84;100.00;101465.03;5254134;28;20032;-73
2023/11/16 04:25:28;;;;;;;10.75;3.50;;;;;;;9.78;100.00;101455.84;5254254;28;20032;-73
2023/11/16 04:28:01;;;;;;;7.78;3.72;;;;;;;9.83;100.00;101460.75;5252812;28;20029;-76
2023/11/16 04:30:34;;;;;;;6.20;3.03;;;;;;;9.64;100.00;101430.66;5254591;28;20040;-76
2023/11/16 04:33:06;;;;;;;8.15;3.33;;;;;;;9.80;100.00;101458.34;5254519;28;20033;-73
2023/11/16 04:35:38;;;;;;;10.32;3.40;;;;;;;9.80;100.00;101458.34;5235354;28;20043;-76
2023/11/16 04:38:12;;;;;;;6.90;3.10;;;;;;;9.76;100.00;101462.97;5253222;28;20024;-72
2023/11/16 04:40:43;;;;;;;9.40;3.47;;;;;;;9.78;100.00;101462.88;5253541;28;20024;-72
2023/11/16 04:43:16;;;;;;;8.30;3.55;;;;;;;9.78;100.00;101465.47;5253646;28;20051;-73
2023/11/16 04:45:50;;;;;;;7.95;3.72;;;;;;;9.76;100.00;101470.81;5256527;28;20478;-73
2023/11/16 04:48:22;;;;;;;12.60;3.60;;;;;;;9.78;100.00;101473.34;5257558;28;20394;-73
2023/11/16 04:50:55;;;;;;;10.07;3.85;;;;;;;9.73;100.00;101455.31;5237032;28;20043;-73
2023/11/16 04:53:27;;;;;;;8.15;3.35;;;;;;;9.80;100.00;101461.78;5258264;28;20025;-75
2023/11/16 04:55:59;;;;;;;9.73;3.30;;;;;;;9.73;100.00;101456.16;5258086;28;20128;-73
2023/11/16 04:58:31;;;;;;;8.57;3.65;;;;;;;9.76;100.00;101452.50;5255235;28;20055;-74
2023/11/16 05:01:05;;;;;;;8.82;3.47;;;;;;;9.67;100.00;101437.47;5257729;28;20037;-73
2023/11/16 05:03:37;;;;;;;10.07;3.60;;;;;;;9.74;100.00;101449.16;5258298;28;20047;-75
2023/11/16 05:06:09;;;;;;;10.10;3.33;;;;;;;9.81;100.00;101450.41;5257701;28;20017;-73
2023/11/16 05:08:41;;;;;;;10.02;3.67;;;;;;;9.72;100.00;101464.94;5256136;28;20041;-72
2023/11/16 05:11:23;;;;;;;7.37;2.97;;;;;;;9.97;100.00;101458.81;5255755;28;20032;-74
2023/11/16 05:13:55;;;;;;;6.45;3.20;;;;;;;9.75;100.00;101462.13;5257562;28;20037;-73
2023/11/16 05:16:27;;;;;;;9.48;3.72;;;;;;;9.73;100.00;101457.94;5255915;28;20035;-78
2023/11/16 05:18:58;;;;;;;11.25;3.63;;;;;;;9.75;100.00;101450.81;5256622;28;20547;-73
2023/11/16 05:21:30;;;;;;;10.75;3.63;;;;;;;9.81;100.00;101449.53;5255660;28;20048;-76
2023/11/16 05:24:03;;;;;;;8.55;3.47;;;;;;;9.84;100.00;101450.16;5238443;28;20119;-74
2023/11/16 05:26:37;;;;;;;12.93;4.32;;;;;;;9.87;100.00;101457.78;5256603;28;20380;-73
2023/11/16 05:29:09;;;;;;;11.10;3.83;;;;;;;9.77;100.00;101458.56;5256200;28;20051;-73
2023/11/16 05:31:41;;;;;;;8.55;3.83;;;;;;;9.61;100.00;101433.50;5257141;28;20029;-77
2023/11/16 05:34:14;;;;;;;9.30;3.28;;;;;;;9.74;100.00;101443.94;5256499;28;20425;-72
2023/11/16 05:36:46;;;;;;;10.50;3.88;;;;;;;9.78;100.00;101440.16;5256829;28;20021;-76
2023/11/16 05:39:19;;;;;;;10.23;3.75;;;;;;;9.69;100.00;101435.56;5258388;28;20370;-73
2023/11/16 05:41:51;;;;;;;;;;;;;;;10.47;100.00;101443.81;5261923;28;20040;-73
2023/11/16 05:44:23;;;;;;;8.10;3.47;;;;;;;9.78;100.00;101437.53;5257060;28;19917;-72
2023/11/16 05:46:55;;;;;;;8.38;4.07;;;;;;;9.79;100.00;101438.34;5255896;28;20040;-72
2023/11/16 05:49:27;;;;;;;10.75;3.67;;;;;;;9.77;100.00;101433.22;5256083;28;20028;-77
2023/11/16 05:52:02;;;;;;;8.50;3.63;;;;;;;9.66;100.00;101417.44;5256621;28;20917;-73
2023/11/16 05:54:33;;;;;;;10.43;3.72;;;;;;;9.73;100.00;101426.53;5255508;28;20040;-79
2023/11/16 05:57:05;;;;;;;10.57;3.65;;;;;;;9.67;100.00;101417.38;5256540;28;20025;-75
2023/11/16 05:59:37;;;;;;;11.27;4.10;;;;;;;9.71;100.00;101417.97;5255126;28;20044;-72
2023/11/16 06:02:09;;;;;;;10.95;3.72;;;;;;;9.38;100.00;101401.13;5256716;28;20040;-72
2023/11/16 06:04:44;;;;;;;10.40;4.15;;;;;;;9.46;100.00;101416.28;5255685;28;20403;-72
2023/11/16 06:07:16;;;;;;;10.82;3.83;;;;;;;9.46;100.00;101418.88;5255464;28;20021;-78
2023/11/16 06:09:48;;;;;;;10.50;3.75;;;;;;;9.42;100.00;101417.44;5256430;28;20560;-72
2023/11/16 06:12:20;;;;;;;12.90;4.15;;;;;;;9.43;100.00;101411.25;5255155;28;20464;-72
2023/11/16 06:14:55;;;;;;;9.25;3.63;;;;;;;9.41;100.00;101415.78;5255908;28;20029;-72
2023/11/16 06:17:27;;;;;;;11.40;3.88;;;;;;;9.38;100.00;101411.56;5253844;28;20473;-72
2023/11/16 06:19:59;;;;;;;11.65;4.32;;;;;;;9.40;100.00;101408.88;5254994;28;20039;-72
2023/11/16 06:22:31;;;;;;;11.52;4.25;;;;;;;9.41;100.00;101410.53;5254108;28;20041;-74
2023/11/16 06:25:04;;;;;;;11.18;3.78;;;;;;;9.30;100.00;101392.97;5254092;28;20041;-74
2023/11/16 06:27:37;;;;;;;9.70;3.83;;;;;;;9.39;100.00;101399.34;5237402;28;20405;-72
2023/11/16 06:30:12;;;;;;;10.43;3.40;;;;;;;9.39;100.00;101397.56;5255616;28;20031;-73
2023/11/16 06:32:44;;;;;;;10.52;4.20;;;;;;;9.41;100.00;101398.28;5255618;28;20040;-77
2023/11/16 06:35:16;;;;;;;11.95;3.58;;;;;;;9.38;100.00;101388.03;5254883;28;20024;-73
2023/11/16 06:37:48;;;;;;;9.70;3.88;;;;;;;9.43;100.00;101390.31;5256289;28;20493;-74
2023/11/16 06:40:20;;;;;;;9.38;3.75;;;;;;;9.41;100.00;101379.16;5253565;28;20039;-72
2023/11/16 06:42:52;;;;;;;9.93;3.45;;;;;;;9.36;100.00;101376.88;5256872;28;20060;-72
2023/11/16 06:45:26;;;;;;;10.98;3.45;;;;;;;9.43;100.00;101380.72;5255640;28;20093;-75
2023/11/16 06:48:00;;;;;;;12.18;3.45;;;;;;;9.45;100.00;101378.00;5237388;28;20048;-72
2023/11/16 06:50:34;;;;;;;11.27;3.70;;;;;;;9.51;100.00;101364.50;5238650;28;20041;-72
2023/11/16 06:53:06;;;;;;;12.63;4.22;;;;;;;9.60;100.00;101352.50;5255202;28;20037;-72
2023/11/16 06:55:43;;;;;;;10.02;3.78;;;;;;;9.57;100.00;101358.78;5256569;28;20035;-77
2023/11/16 06:58:16;;;;;;;7.00;3.53;;;;;;;9.66;100.00;101352.06;5255807;28;20052;-73
2023/11/16 07:00:51;;;;;;;13.70;3.72;;;;;;;9.62;100.00;101353.22;5256057;28;20036;-73
2023/11/16 07:03:22;;;;;;;11.43;3.65;;;;;;;9.54;100.00;101351.16;5237498;28;20045;-73
2023/11/16 07:05:54;;;;;;;8.13;3.95;;;;;;;9.49;100.00;101335.81;5256676;28;20381;-75
2023/11/16 07:08:26;;;;;;;8.68;3.08;;;;;;;9.57;100.00;101337.03;5252790;28;20033;-73
2023/11/16 07:10:58;;;;;;;10.73;3.92;;;;;;;9.52;100.00;101333.94;5255688;28;20078;-79
2023/11/16 07:13:31;;;;;;;12.63;4.00;;;;;;;9.46;100.00;101329.97;5256720;28;20025;-72
2023/11/16 07:16:03;;;;;;;10.50;4.27;;;;;;;9.50;100.00;101326.19;5251290;28;20040;-73
2023/11/16 07:18:35;;;;;;;11.05;3.88;;;;;;;9.56;100.00;101335.38;5254426;28;20405;-75
2023/11/16 07:21:07;;;;;;;10.13;3.83;;;;;;;9.53;100.00;101325.13;5252940;28;20032;-73
2023/11/16 07:23:39;;;;;;;9.38;3.95;;;;;;;9.58;100.00;101328.22;5236439;28;20033;-76
2023/11/16 07:26:11;;;;;;;12.30;3.80;;;;;;;9.55;100.00;101326.69;5254935;28;20035;-74
2023/11/16 07:28:44;;;;;;;9.38;3.53;;;;;;;9.61;100.00;101334.06;5255939;28;20032;-73
2023/11/16 07:31:21;;;;;;;10.55;3.75;;;;;;;9.67;100.00;101338.03;5254914;28;20060;-76
2023/11/16 07:33:53;;;;;;;9.85;3.95;;;;;;;9.62;100.00;101320.06;5246747;28;20406;-72
2023/11/16 07:36:26;;;;;;;9.53;4.07;;;;;;;9.62;100.00;101329.69;5235659;28;20402;-79
2023/11/16 07:38:58;;;;;;;11.23;4.70;;;;;;;9.70;100.00;101329.97;5233137;28;20060;-73
2023/11/16 07:41:30;;;;;;;10.52;3.88;;;;;;;9.58;100.00;101307.31;5255277;28;20099;-73
2023/11/16 07:44:02;;;;;;;9.50;3.88;;;;;;;9.61;100.00;101322.78;5252594;28;20033;-72
2023/11/16 07:46:35;;;;;;;12.18;3.72;;;;;;;9.61;100.00;101307.09;5255370;28;20020;-73
2023/11/16 07:49:09;;;;;;;10.73;3.53;;;;;;;9.47;100.00;101290.63;5254763;28;20043;-75
2023/11/16 07:51:40;;;;;;;11.13;3.58;;;;;;;9.56;100.00;101293.53;5254467;28;20025;-72
2023/11/16 07:54:15;;;;;;;13.75;3.70;;;;;;;9.60;100.00;101298.41;5254765;28;20079;-73
2023/11/16 07:56:52;;;;;;;8.77;3.33;;;;;;;9.58;100.00;101292.44;5254722;28;20021;-74
2023/11/16 07:59:30;;;;;;;11.43;3.40;;;;;;;9.61;100.00;101299.25;5253192;28;20029;-72
2023/11/16 08:02:02;;;;;;;8.38;3.25;;;;;;;9.61;100.00;101286.16;5254064;28;20036;-75
2023/11/16 08:04:34;;;;;;;12.68;3.53;;;;;;;9.54;100.00;101277.09;5256392;28;20037;-75
2023/11/16 08:07:07;;;;;;;9.80;3.60;;;;;;;9.54;100.00;101277.91;5257322;28;20217;-77
2023/11/16 08:09:39;;;;;;;9.33;3.83;;;;;;;9.55;100.00;101277.00;5252468;28;20045;-73
2023/11/16 08:12:10;;;;;;;12.13;3.95;;;;;;;9.63;100.00;101286.91;5253116;28;20036;-76
2023/11/16 08:14:42;;;;;;;8.27;2.90;;;;;;;9.67;100.00;101283.94;5252849;28;20536;-74
2023/11/16 08:17:16;;;;;;;7.40;3.20;;;;;;;9.58;100.00;101279.38;5251461;28;20095;-74
2023/11/16 08:19:48;;;;;;;10.05;3.53;;;;;;;9.74;100.00;101292.16;5253889;28;20033;-73
2023/11/16 08:22:19;;;;;;;7.18;2.90;;;;;;;9.72;100.00;101288.81;5240096;28;20049;-73
2023/11/16 08:24:51;;;;;;;9.43;3.67;;;;;;;9.69;100.00;101283.81;5258679;28;20037;-77
2023/11/16 08:27:23;;;;;;;11.93;3.92;;;;;;;9.72;100.00;101289.66;5255401;28;20509;-75
2023/11/16 08:29:55;;;;;;;8.43;3.30;;;;;;;9.67;100.00;101270.03;5256059;28;20849;-76
2023/11/16 08:32:28;;;;;;;8.27;3.42;;;;;;;9.72;100.00;101273.13;5256563;28;20075;-80
2023/11/16 08:35:00;;;;;;;9.00;3.47;;;;;;;9.80;100.00;101269.94;5254018;28;20634;-73
2023/11/16 08:37:32;;;;;;;8.00;3.53;;;;;;;9.83;100.00;101265.31;5258308;28;20044;-72
2023/11/16 08:40:04;;;;;;;16.60;5.00;;;;;;;9.77;100.00;101270.97;5259028;28;20037;-75
2023/11/16 08:42:42;;;;;;;10.32;3.53;;;;;;;9.75;100.00;101268.50;5254386;28;20040;-78
2023/11/16 08:45:24;;;;;;;9.77;3.58;;;;;;;9.83;100.00;101270.53;5237128;28;20041;-77
2023/11/16 08:47:57;;;;;;;12.77;4.07;;;;;;;9.83;100.00;101267.91;5256978;28;20036;-78
2023/11/16 08:50:33;;;;;;;11.10;3.65;;;;;;;9.87;100.00;101271.16;5238866;28;20040;-74
2023/11/16 08:53:07;;;;;;;9.82;3.83;;;;;;;9.91;100.00;101267.34;5257138;28;20466;-76
2023/11/16 08:55:39;;;;;;;11.38;3.75;;;;;;;9.91;100.00;101260.31;5256849;28;20029;-77
2023/11/16 08:58:11;;;;;;;12.05;4.63;;;;;;;9.92;100.00;101258.53;5257518;28;20477;-75
2023/11/16 09:00:47;;;;;;;6.35;3.45;;;;;;;9.97;100.00;101261.66;5258559;28;20029;-76
2023/11/16 09:03:19;;;;;;;11.40;3.92;;;;;;;9.88;100.00;101257.94;5259123;28;20036;-76
2023/11/16 09:05:53;;;;;;;11.32;4.25;;;;;;;10.07;100.00;101260.00;5239116;28;20057;-73
2023/11/16 09:08:25;;;;;;;10.38;4.28;;;;;;;10.07;100.00;101256.53;5256989;28;20044;-73
2023/11/16 09:10:57;;;;;;;10.65;4.05;;;;;;;10.08;100.00;101259.06;5239837;28;20044;-73
2023/11/16 09:13:30;;;;;;;10.32;3.90;;;;;;;10.12;100.00;101251.81;5238474;28;20040;-75
2023/11/16 09:16:02;;;;;;;15.25;4.50;;;;;;;10.14;100.00;101248.09;5255856;28;20512;-73
2023/11/16 09:18:34;;;;;;;9.02;3.85;;;;;;;10.12;100.00;101243.97;5255212;28;20504;-78
2023/11/16 09:21:06;;;;;;;10.88;4.30;;;;;;;10.10;100.00;101244.06;5253316;28;20068;-78
2023/11/16 09:23:41;;;;;;;10.50;4.20;;;;;;;10.18;100.00;101261.78;5254682;28;20052;-73
2023/11/16 09:26:14;;;;;;;9.60;3.80;;;;;;;10.26;100.00;101258.63;5256906;28;20048;-73
2023/11/16 09:28:47;;;;;;;10.43;4.95;;;;;;;10.26;100.00;101262.06;5256189;28;20028;-79
2023/11/16 09:31:21;;;;;;;11.25;4.35;;;;;;;10.25;100.00;101257.78;5256185;28;20040;-73
2023/11/16 09:33:54;;;;;;;11.13;4.80;;;;;;;10.21;100.00;101254.53;5255471;28;20824;-77
2023/11/16 09:36:27;;;;;;;;;;;;;;;10.95;100.00;101244.41;5256860;28;20493;-73
2023/11/16 09:38:59;;;;;;;13.88;5.53;;;;;;;10.30;100.00;101247.78;5256163;28;19932;-76
2023/11/16 09:41:33;;;;;;;17.25;7.15;;;;;;;10.23;100.00;101236.94;5257531;28;20025;-78
2023/11/16 09:44:06;;;;;;;12.38;5.75;;;;;;;10.20;100.00;101238.97;5257124;28;20389;-74
2023/11/16 09:46:40;;;;;;;12.52;6.38;;;;;;;10.17;100.00;101245.25;5257795;28;20040;-74
2023/11/16 09:49:13;;;;;;;;;;;;;;;10.89;100.00;101237.03;5254778;28;20025;-79
2023/11/16 09:51:45;;;;;;;12.70;5.28;;;;;;;10.26;100.00;101228.03;5236601;28;19912;-75
2023/11/16 09:54:20;;;;;;;13.13;4.97;;;;;;;10.21;100.00;101222.28;5256225;28;20051;-73
2023/11/16 09:56:54;;;;;;;13.35;4.57;;;;;;;10.16;100.00;101227.88;5237438;28;20493;-77
2023/11/16 09:59:27;;;;;;;10.88;4.10;;;;;;;10.11;100.00;101201.22;5236747;28;20036;-73
2023/11/16 10:02:09;;;;;;;15.43;4.65;;;;;;;10.12;100.00;101189.81;5256623;28;20040;-73
2023/11/16 10:04:44;;;;;;;12.32;4.90;;;;;;;10.30;100.00;101205.06;5256177;28;20028;-73
2023/11/16 10:07:20;;;;;;;11.82;4.30;;;;;;;10.39;100.00;101201.75;5256004;28;20398;-75
2023/11/16 10:09:57;;;;;;;11.23;4.95;;;;;;;10.30;100.00;101197.19;5256166;28;20482;-75
2023/11/16 10:12:31;;;;;;;11.43;4.88;;;;;;;10.34;100.00;101190.78;5257402;28;20028;-74
2023/11/16 10:15:14;;;;;;;13.85;4.82;;;;;;;10.59;100.00;101192.31;5232387;28;20395;-74
2023/11/16 10:17:47;;;;;;;12.65;4.57;;;;;;;10.40;100.00;101190.31;5255268;28;20029;-77
2023/11/16 10:20:20;;;;;;;12.50;4.82;;;;;;;10.46;100.00;101188.03;5253412;28;20398;-74
2023/11/16 10:22:54;;;;;;;12.32;4.32;;;;;;;10.46;100.00;101190.66;5254556;28;20040;-76
2023/11/16 10:25:25;;;;;;;;;;;;;;;11.15;100.00;101190.38;5258132;28;20490;-75
2023/11/16 10:27:57;;;;;;;9.43;3.65;;;;;;;10.37;100.00;101175.66;5264631;28;19920;-73
2023/11/16 10:30:29;;;;;;;9.63;3.75;;;;;;;10.39;100.00;101179.00;5234489;28;20041;-73
2023/11/16 10:33:02;;;;;;;12.25;4.05;;;;;;;10.33;100.00;101179.47;5255569;28;20024;-75
2023/11/16 10:35:35;;;;;;;8.48;3.97;;;;;;;10.42;100.00;101170.91;5237462;28;20052;-75
2023/11/16 10:38:08;;;;;;;9.52;5.10;;;;;;;10.42;100.00;101168.28;5253213;28;20482;-74
2023/11/16 10:40:42;;;;;;;14.73;5.55;;;;;;;10.43;100.00;101167.31;5255329;28;20033;-74
2023/11/16 10:43:25;;;;;;;13.27;5.30;;;;;;;10.45;100.00;101170.66;5255328;28;20040;-73
2023/11/16 10:46:05;;;;;;;12.70;4.93;;;;;;;10.50;100.00;101165.06;5234412;28;20469;-75
2023/11/16 10:48:38;;;;;;;14.13;5.07;;;;;;;10.46;100.00;101153.16;5251829;28;21327;-76
2023/11/16 10:51:13;;;;;;;10.32;4.95;;;;;;;10.48;100.00;101151.22;5254734;28;20476;-74
2023/11/16 10:53:51;;;;;;;11.48;5.03;;;;;;;10.51;100.00;101151.00;5254674;28;20044;-73
2023/11/16 10:56:24;;;;;;;12.73;5.53;;;;;;;10.48;100.00;101140.75;5255474;28;20039;-73
2023/11/16 10:58:59;;;;;;;12.88;5.10;;;;;;;10.48;100.00;101138.97;5238398;28;20035;-81
2023/11/16 11:01:34;;;;;;;10.65;5.30;;;;;;;10.46;100.00;101132.19;5253257;28;20037;-74
2023/11/16 11:04:07;;;;;;;18.10;5.93;;;;;;;10.48;100.00;101133.72;5254777;28;20501;-78
2023/11/16 11:06:42;;;;;;;13.98;4.65;;;;;;;10.55;100.00;101117.53;5255333;28;20040;-80
2023/11/16 11:09:15;;;;;;;13.75;5.38;;;;;;;10.53;100.00;101122.03;5236805;28;20197;-76
2023/11/16 11:11:48;;;;;;;;;;;;;;;11.26;100.00;101118.66;5254050;28;20032;-74
2023/11/16 11:14:25;;;;;;;10.93;4.60;;;;;;;10.64;100.00;101114.16;5253702;28;19920;-73
2023/11/16 11:17:05;;;;;;;10.77;4.80;;;;;;;10.71;100.00;101102.22;5253508;28;20478;-73
2023/11/16 11:19:37;;;;;;;16.10;5.85;;;;;;;10.57;100.00;101102.50;5255300;28;20032;-75
2023/11/16 11:22:15;;;;;;;11.93;4.78;;;;;;;10.71;100.00;101104.84;5230035;28;20532;-76
2023/11/16 11:24:47;;;;;;;11.43;4.88;;;;;;;10.62;100.00;101092.50;5253519;28;20485;-76
2023/11/16 11:27:24;;;;;;;9.40;5.13;;;;;;;10.54;100.00;101081.81;5255878;28;20029;-77
2023/11/16 11:30:08;;;;;;;10.13;4.50;;;;;;;10.83;100.00;101087.28;5255583;28;20128;-73
2023/11/16 11:32:47;;;;;;;15.25;5.38;;;;;;;10.79;100.00;101078.00;5254221;28;20036;-77
2023/11/16 11:35:21;;;;;;;12.95;4.22;;;;;;;10.66;100.00;101070.34;5236137;28;20044;-76
2023/11/16 11:37:53;;;;;;;10.90;4.45;;;;;;;10.60;100.00;101061.16;5252148;28;20275;-78
2023/11/16 11:40:26;;;;;;;10.27;4.50;;;;;;;10.55;100.00;101052.88;5254773;28;20035;-73
2023/11/16 11:42:58;;;;;;;12.07;4.50;;;;;;;10.57;100.00;101042.25;5255217;28;20025;-78
2023/11/16 11:45:30;;;;;;;10.85;4.10;;;;;;;10.68;100.00;101045.69;5253866;28;20776;-73